createdAt,value
2022-11-28T00:01:45.813Z,23.80
2022-11-28T00:04:12.949Z,19.75
2022-11-28T00:06:41.291Z,22.05
2022-11-28T00:09:08.599Z,17.45
2022-11-28T00:11:35.684Z,18.13
2022-11-28T00:14:02.766Z,20.17
2022-11-28T00:16:29.928Z,17.77
2022-11-28T00:18:57.090Z,19.58
2022-11-28T00:21:24.228Z,19.08
2022-11-28T00:23:51.345Z,18.08
2022-11-28T00:26:24.328Z,21.45
2022-11-28T00:28:51.474Z,16.17
2022-11-28T00:31:23.166Z,19.75
2022-11-28T00:33:50.293Z,19.40
2022-11-28T00:36:17.461Z,17.92
2022-11-28T00:38:44.577Z,19.63
2022-11-28T00:41:21.220Z,18.02
2022-11-28T00:43:48.788Z,19.45
2022-11-28T00:46:15.973Z,17.88
2022-11-28T00:48:43.062Z,18.35
2022-11-28T00:51:13.921Z,20.38
2022-11-28T00:53:42.416Z,21.98
2022-11-28T00:56:10.114Z,19.48
2022-11-28T00:58:37.310Z,19.55
2022-11-28T01:01:08.440Z,21.67
2022-11-28T01:03:35.538Z,19.13
2022-11-28T01:06:02.585Z,21.50
2022-11-28T01:08:29.636Z,20.08
2022-11-28T01:10:56.685Z,27.65
2022-11-28T01:13:23.702Z,21.20
2022-11-28T01:15:50.842Z,24.02
2022-11-28T01:18:17.971Z,20.70
2022-11-28T01:20:45.062Z,21.00
2022-11-28T01:23:12.250Z,21.05
2022-11-28T01:25:39.300Z,17.55
2022-11-28T01:28:06.319Z,20.90
2022-11-28T01:30:34.371Z,25.00
2022-11-28T01:33:01.447Z,21.83
2022-11-28T01:35:28.547Z,19.33
2022-11-28T01:37:55.641Z,18.50
2022-11-28T01:40:22.800Z,26.40
2022-11-28T01:42:49.915Z,20.38
2022-11-28T01:45:19.696Z,20.50
2022-11-28T01:47:46.789Z,24.15
2022-11-28T01:50:13.869Z,21.77
2022-11-28T01:52:41.494Z,21.73
2022-11-28T01:55:08.693Z,22.67
2022-11-28T01:57:35.771Z,24.73
2022-11-28T02:00:05.968Z,22.25
2022-11-28T02:02:34.331Z,21.05
2022-11-28T02:05:01.498Z,23.00
2022-11-28T02:07:28.666Z,25.98
2022-11-28T02:09:55.717Z,22.52
2022-11-28T02:12:32.098Z,24.00
2022-11-28T02:15:02.164Z,22.08
2022-11-28T02:17:29.242Z,22.23
2022-11-28T02:20:18.341Z,22.10
2022-11-28T02:22:47.829Z,26.70
2022-11-28T02:25:15.714Z,23.58
2022-11-28T02:28:01.542Z,22.08
2022-11-28T02:30:48.821Z,22.65
2022-11-28T02:33:34.484Z,23.55
2022-11-28T02:36:20.583Z,27.35
2022-11-28T02:38:59.532Z,24.92
2022-11-28T02:41:29.911Z,23.55
2022-11-28T02:44:04.149Z,28.35
2022-11-28T02:46:54.831Z,24.33
2022-11-28T02:49:30.040Z,25.95
2022-11-28T02:51:57.962Z,24.67
2022-11-28T02:54:25.144Z,23.45
2022-11-28T02:56:52.863Z,22.67
2022-11-28T02:59:32.174Z,24.83
2022-11-28T03:01:59.466Z,20.65
2022-11-28T03:04:38.181Z,20.45
2022-11-28T03:07:16.427Z,23.95
2022-11-28T03:10:02.286Z,21.80
2022-11-28T03:12:44.466Z,23.80
2022-11-28T03:15:11.545Z,24.10
2022-11-28T03:17:53.885Z,22.45
2022-11-28T03:20:39.694Z,27.45
2022-11-28T03:23:14.493Z,24.17
2022-11-28T03:25:41.620Z,24.10
2022-11-28T03:28:08.718Z,22.98
2022-11-28T03:30:38.673Z,25.88
2022-11-28T03:33:05.837Z,24.27
2022-11-28T03:35:34.070Z,25.13
2022-11-28T03:38:05.650Z,21.95
2022-11-28T03:40:34.471Z,24.15
2022-11-28T03:43:02.756Z,25.90
2022-11-28T03:45:30.272Z,21.60
2022-11-28T03:48:04.358Z,25.63
2022-11-28T03:50:34.026Z,25.52
2022-11-28T03:53:04.891Z,21.73
2022-11-28T03:55:42.885Z,23.42
2022-11-28T03:58:12.906Z,24.38
2022-11-28T04:00:43.563Z,24.00
2022-11-28T04:03:19.790Z,21.35
2022-11-28T04:05:46.982Z,23.67
2022-11-28T04:08:20.023Z,24.15
2022-11-28T04:10:53.219Z,22.58
2022-11-28T04:13:27.012Z,22.15
2022-11-28T04:15:55.478Z,25.15
2022-11-28T04:18:33.556Z,23.23
2022-11-28T04:21:02.233Z,23.65
2022-11-28T04:23:29.269Z,21.98
2022-11-28T04:25:59.078Z,25.25
2022-11-28T04:28:26.836Z,22.88
2022-11-28T04:30:53.966Z,28.15
2022-11-28T04:33:21.619Z,23.55
2022-11-28T04:35:50.298Z,23.38
2022-11-28T04:38:17.334Z,23.48
2022-11-28T04:40:52.656Z,25.40
2022-11-28T04:43:40.201Z,23.38
2022-11-28T04:46:11.790Z,23.30
2022-11-28T04:48:39.076Z,25.30
2022-11-28T04:51:25.139Z,24.20
2022-11-28T04:54:07.650Z,26.70
2022-11-28T04:56:37.538Z,25.35
2022-11-28T04:59:04.909Z,23.27
2022-11-28T05:01:32.035Z,23.13
2022-11-28T05:03:59.185Z,23.67
2022-11-28T05:06:33.156Z,21.50
2022-11-28T05:09:00.251Z,23.88
2022-11-28T05:11:27.502Z,24.48
2022-11-28T05:13:54.963Z,26.05
2022-11-28T05:16:23.039Z,32.08
2022-11-28T05:18:50.293Z,25.38
2022-11-28T05:21:17.390Z,25.45
2022-11-28T05:23:44.804Z,28.10
2022-11-28T05:26:12.914Z,27.25
2022-11-28T05:28:39.954Z,25.75
2022-11-28T05:31:07.151Z,26.55
2022-11-28T05:33:34.188Z,25.80
2022-11-28T05:36:08.588Z,29.50
2022-11-28T05:38:39.580Z,26.85
2022-11-28T05:41:07.106Z,26.95
2022-11-28T05:43:37.817Z,25.30
2022-11-28T05:46:06.765Z,27.95
2022-11-28T05:48:33.885Z,27.80
2022-11-28T05:51:00.918Z,25.92
2022-11-28T05:53:28.098Z,26.10
2022-11-28T05:55:55.120Z,25.77
2022-11-28T05:58:22.140Z,28.65
2022-11-28T06:00:49.282Z,27.05
2022-11-28T06:03:16.409Z,25.50
2022-11-28T06:05:44.246Z,34.33
2022-11-28T06:08:12.249Z,28.80
2022-11-28T06:10:39.391Z,26.63
2022-11-28T06:13:06.545Z,29.33
2022-11-28T06:15:37.522Z,31.00
2022-11-28T06:18:05.507Z,33.47
2022-11-28T06:20:32.571Z,25.52
2022-11-28T06:22:59.620Z,27.50
2022-11-28T06:25:26.764Z,31.92
2022-11-28T06:27:53.804Z,28.92
2022-11-28T06:30:20.894Z,24.75
2022-11-28T06:32:48.011Z,27.15
2022-11-28T06:35:15.108Z,31.13
2022-11-28T06:37:42.436Z,28.45
2022-11-28T06:40:09.586Z,28.95
2022-11-28T06:42:36.831Z,28.30
2022-11-28T06:45:04.560Z,33.58
2022-11-28T06:47:31.687Z,30.20
2022-11-28T06:49:58.794Z,30.60
2022-11-28T06:52:26.412Z,33.50
2022-11-28T06:54:53.524Z,28.80
2022-11-28T06:57:21.047Z,30.40
2022-11-28T06:59:49.357Z,30.08
2022-11-28T07:02:16.481Z,30.00
2022-11-28T07:04:43.574Z,32.80
2022-11-28T07:07:15.065Z,34.38
2022-11-28T07:09:43.896Z,32.85
2022-11-28T07:12:11.250Z,32.22
2022-11-28T07:14:38.441Z,30.98
2022-11-28T07:17:05.652Z,29.85
2022-11-28T07:19:32.753Z,33.20
2022-11-28T07:21:59.825Z,34.92
2022-11-28T07:24:27.443Z,31.33
2022-11-28T07:26:54.525Z,34.35
2022-11-28T07:29:21.679Z,31.98
2022-11-28T07:31:48.833Z,30.73
2022-11-28T07:34:15.904Z,33.92
2022-11-28T07:36:43.128Z,34.80
2022-11-28T07:39:10.845Z,33.60
2022-11-28T07:41:37.945Z,31.05
2022-11-28T07:44:05.204Z,29.40
2022-11-28T07:46:32.483Z,31.15
2022-11-28T07:48:59.627Z,35.13
2022-11-28T07:51:27.859Z,31.70
2022-11-28T07:53:55.002Z,34.80
2022-11-28T07:56:23.228Z,35.15
2022-11-28T07:58:50.347Z,30.40
2022-11-28T08:01:24.344Z,31.83
2022-11-28T08:03:51.701Z,31.88
2022-11-28T08:06:19.349Z,35.13
2022-11-28T08:08:47.149Z,32.22
2022-11-28T08:11:14.786Z,33.47
2022-11-28T08:13:41.851Z,28.48
2022-11-28T08:16:10.066Z,33.60
2022-11-28T08:18:37.144Z,35.67
2022-11-28T08:21:06.612Z,34.95
2022-11-28T08:23:34.604Z,32.92
2022-11-28T08:26:02.196Z,38.50
2022-11-28T08:28:29.471Z,36.05
2022-11-28T08:30:56.648Z,35.38
2022-11-28T08:33:26.578Z,35.35
2022-11-28T08:35:53.679Z,33.85
2022-11-28T08:38:20.727Z,34.70
2022-11-28T08:40:47.740Z,34.85
2022-11-28T08:43:14.759Z,35.03
2022-11-28T08:45:41.815Z,36.67
2022-11-28T08:48:08.992Z,32.20
2022-11-28T08:50:36.111Z,29.23
2022-11-28T08:53:07.687Z,31.52
2022-11-28T08:55:40.581Z,33.30
2022-11-28T08:58:08.960Z,32.42
2022-11-28T09:00:36.074Z,30.30
2022-11-28T09:03:03.099Z,34.20
2022-11-28T09:05:30.219Z,32.97
2022-11-28T09:07:57.427Z,32.83
2022-11-28T09:10:24.999Z,32.00
2022-11-28T09:12:52.382Z,32.58
2022-11-28T09:15:19.441Z,33.13
2022-11-28T09:17:46.889Z,32.88
2022-11-28T09:20:14.049Z,31.13
2022-11-28T09:22:42.533Z,29.80
2022-11-28T09:25:09.682Z,33.83
2022-11-28T09:27:36.785Z,33.80
2022-11-28T09:30:03.945Z,30.60
2022-11-28T09:32:31.106Z,35.13
2022-11-28T09:34:58.146Z,35.35
2022-11-28T09:37:25.217Z,27.25
2022-11-28T09:40:12.225Z,34.25
2022-11-28T09:42:41.789Z,34.10
2022-11-28T09:45:13.382Z,33.72
2022-11-28T09:47:40.825Z,31.63
2022-11-28T09:50:15.107Z,34.45
2022-11-28T09:52:57.705Z,30.60
2022-11-28T09:55:40.899Z,30.38
2022-11-28T09:58:20.525Z,33.60
2022-11-28T10:01:02.938Z,28.83
2022-11-28T10:03:44.223Z,31.70
2022-11-28T10:06:11.347Z,26.23
2022-11-28T10:08:54.703Z,28.33
2022-11-28T10:11:48.287Z,29.42
2022-11-28T10:14:18.398Z,25.55
2022-11-28T10:16:45.522Z,31.17
2022-11-28T10:19:46.180Z,29.05
2022-11-28T10:22:03.483Z,30.67
2022-11-28T10:24:41.447Z,24.33
2022-11-28T10:27:10.093Z,24.00
2022-11-28T10:29:40.335Z,24.83
2022-11-28T10:34:37.453Z,26.58
2022-11-28T10:37:06.010Z,25.15
2022-11-28T10:39:33.253Z,30.08
2022-11-28T10:42:15.833Z,25.40
2022-11-28T10:44:45.766Z,26.85
2022-11-28T10:47:17.114Z,28.15
2022-11-28T10:49:54.943Z,27.75
2022-11-28T10:52:23.222Z,24.35
2022-11-28T10:54:59.575Z,27.63
2022-11-28T10:57:46.895Z,25.77
2022-11-28T11:00:19.979Z,27.48
2022-11-28T11:02:48.144Z,23.25
2022-11-28T11:05:19.404Z,23.42
2022-11-28T11:07:53.654Z,26.65
2022-11-28T11:10:26.590Z,25.25
2022-11-28T11:12:53.715Z,25.73
2022-11-28T11:15:22.320Z,22.60
2022-11-28T11:17:52.665Z,27.10
2022-11-28T11:20:19.723Z,28.30
2022-11-28T11:22:54.764Z,26.70
2022-11-28T11:25:22.194Z,25.00
2022-11-28T11:27:49.567Z,25.25
2022-11-28T11:30:26.056Z,25.35
2022-11-28T11:32:54.508Z,25.08
2022-11-28T11:35:22.745Z,25.83
2022-11-28T11:37:49.826Z,24.92
2022-11-28T11:40:20.613Z,25.48
2022-11-28T11:42:57.694Z,26.95
2022-11-28T11:45:34.569Z,25.80
2022-11-28T11:48:01.851Z,26.88
2022-11-28T11:50:30.357Z,30.35
2022-11-28T11:53:01.390Z,24.05
2022-11-28T11:55:29.208Z,29.08
2022-11-28T11:57:56.352Z,25.05
2022-11-28T12:00:24.725Z,22.98
2022-11-28T12:02:55.012Z,23.48
2022-11-28T12:05:24.491Z,23.27
2022-11-28T12:07:51.607Z,27.80
2022-11-28T12:10:19.631Z,26.25
2022-11-28T12:12:46.738Z,25.23
2022-11-28T12:15:18.047Z,25.75
2022-11-28T12:20:53.643Z,29.02
2022-11-28T12:23:20.684Z,26.88
2022-11-28T12:25:52.810Z,24.52
2022-11-28T12:28:27.413Z,27.35
2022-11-28T12:30:58.804Z,26.92
2022-11-28T12:33:29.103Z,24.13
2022-11-28T12:36:22.501Z,24.70
2022-11-28T12:39:08.358Z,25.73
2022-11-28T12:41:53.748Z,28.42
2022-11-28T12:44:20.810Z,32.85
2022-11-28T12:46:50.947Z,25.85
2022-11-28T12:49:22.150Z,26.08
2022-11-28T12:51:58.410Z,27.08
2022-11-28T12:54:36.653Z,27.13
2022-11-28T12:57:03.666Z,31.17
2022-11-28T12:59:35.867Z,27.20
2022-11-28T13:02:10.027Z,27.52
2022-11-28T13:04:40.481Z,28.48
2022-11-28T13:07:10.421Z,29.17
2022-11-28T13:09:47.447Z,29.55
2022-11-28T13:12:25.336Z,26.90
2022-11-28T13:14:56.075Z,28.45
2022-11-28T13:17:32.167Z,31.90
2022-11-28T13:20:02.224Z,38.20
2022-11-28T13:22:49.652Z,29.95
2022-11-28T13:25:19.662Z,35.80
2022-11-28T13:27:58.826Z,36.22
2022-11-28T13:30:29.502Z,33.83
2022-11-28T13:33:02.424Z,35.90
2022-11-28T13:35:29.500Z,36.10
2022-11-28T13:40:54.379Z,37.55
2022-11-28T13:43:25.066Z,32.22
2022-11-28T13:45:52.623Z,31.70
2022-11-28T13:49:13.160Z,28.52
2022-11-28T13:51:30.567Z,31.35
2022-11-28T13:54:17.491Z,28.02
2022-11-28T13:56:48.053Z,32.58
2022-11-28T13:59:19.223Z,33.65
2022-11-28T14:01:46.978Z,30.00
2022-11-28T14:04:14.488Z,33.28
2022-11-28T14:06:44.544Z,32.35
2022-11-28T14:09:17.505Z,27.92
2022-11-28T14:11:53.518Z,29.95
2022-11-28T14:14:39.862Z,31.40
2022-11-28T14:17:30.215Z,29.10
2022-11-28T14:20:06.290Z,28.58
2022-11-28T14:22:39.474Z,31.58
2022-11-28T14:25:10.682Z,32.47
2022-11-28T14:27:38.416Z,31.45
2022-11-28T14:30:05.945Z,30.50
2022-11-28T14:32:42.718Z,33.65
2022-11-28T14:35:16.317Z,29.80
2022-11-28T14:37:54.144Z,28.30
2022-11-28T14:40:40.127Z,30.92
2022-11-28T14:43:26.005Z,28.63
2022-11-28T14:45:53.143Z,29.15
2022-11-28T14:48:29.343Z,33.85
2022-11-28T14:51:01.947Z,29.45
2022-11-28T14:53:43.463Z,36.40
2022-11-28T14:56:16.651Z,32.78
2022-11-28T14:58:49.771Z,33.10
2022-11-28T15:01:18.464Z,33.30
2022-11-28T15:03:45.500Z,31.00
2022-11-28T15:06:19.274Z,33.00
2022-11-28T15:08:58.532Z,39.55
2022-11-28T15:11:30.451Z,32.08
2022-11-28T15:14:02.796Z,31.95
2022-11-28T15:16:30.784Z,33.20
2022-11-28T15:19:08.618Z,39.00
2022-11-28T15:21:45.466Z,37.72
2022-11-28T15:24:31.000Z,37.75
2022-11-28T15:27:18.357Z,36.58
2022-11-28T15:29:53.277Z,40.42
2022-11-28T15:32:20.323Z,40.28
2022-11-28T15:34:51.382Z,37.70
2022-11-28T15:37:19.062Z,38.38
2022-11-28T15:39:46.610Z,43.50
2022-11-28T15:42:19.205Z,43.80
2022-11-28T15:44:46.238Z,40.05
2022-11-28T15:47:20.112Z,44.83
2022-11-28T15:49:47.383Z,40.05
2022-11-28T15:52:17.404Z,41.40
2022-11-28T15:54:44.819Z,42.83
2022-11-28T15:57:25.886Z,43.00
2022-11-28T15:59:52.910Z,41.20
2022-11-28T16:02:23.608Z,42.20
2022-11-28T16:04:52.361Z,41.17
2022-11-28T16:07:19.490Z,42.83
2022-11-28T16:09:57.439Z,43.85
2022-11-28T16:12:24.561Z,42.00
2022-11-28T16:14:53.257Z,39.58
2022-11-28T16:17:21.033Z,44.50
2022-11-28T16:19:50.093Z,43.47
2022-11-28T16:22:20.541Z,42.63
2022-11-28T16:24:48.572Z,42.30
2022-11-28T16:27:34.461Z,45.53
2022-11-28T16:30:01.936Z,40.40
2022-11-28T16:32:38.916Z,47.08
2022-11-28T16:35:06.511Z,47.20
2022-11-28T16:37:33.572Z,47.53
2022-11-28T16:40:05.149Z,51.42
2022-11-28T16:42:32.295Z,46.15
2022-11-28T16:45:07.102Z,47.53
2022-11-28T16:47:37.058Z,49.53
2022-11-28T16:50:15.591Z,38.10
2022-11-28T16:52:43.670Z,46.90
2022-11-28T16:55:32.383Z,51.10
2022-11-28T16:58:07.346Z,41.97
2022-11-28T17:00:34.700Z,44.58
2022-11-28T17:03:01.837Z,47.45
2022-11-28T17:05:28.898Z,40.75
2022-11-28T17:07:56.056Z,44.47
2022-11-28T17:10:25.277Z,44.08
2022-11-28T17:12:52.464Z,42.88
2022-11-28T17:15:20.463Z,46.53
2022-11-28T17:17:47.532Z,39.15
2022-11-28T17:20:14.787Z,40.63
2022-11-28T17:22:43.114Z,43.70
2022-11-28T17:25:14.928Z,46.90
2022-11-28T17:27:41.934Z,50.95
2022-11-28T17:30:10.677Z,65.03
2022-11-28T17:32:37.695Z,48.10
2022-11-28T17:35:04.832Z,46.35
2022-11-28T17:37:31.837Z,43.00
2022-11-28T17:40:17.667Z,36.67
2022-11-28T17:42:44.715Z,47.47
2022-11-28T17:45:15.058Z,46.35
2022-11-28T17:47:42.150Z,41.80
2022-11-28T17:50:11.187Z,39.63
2022-11-28T17:52:38.290Z,44.80
2022-11-28T17:55:07.265Z,49.08
2022-11-28T17:57:34.534Z,45.10
2022-11-28T18:00:01.557Z,45.60
2022-11-28T18:02:28.620Z,45.97
2022-11-28T18:04:55.734Z,47.58
2022-11-28T18:07:22.858Z,42.47
2022-11-28T18:09:50.206Z,42.10
2022-11-28T18:12:17.301Z,47.30
2022-11-28T18:14:44.343Z,43.97
2022-11-28T18:17:11.987Z,44.85
2022-11-28T18:19:39.148Z,41.50
2022-11-28T18:22:08.482Z,39.78
2022-11-28T18:24:36.106Z,42.08
2022-11-28T18:27:03.153Z,43.17
2022-11-28T18:29:30.217Z,42.60
2022-11-28T18:31:57.307Z,46.08
2022-11-28T18:34:24.421Z,44.30
2022-11-28T18:36:58.269Z,43.13
2022-11-28T18:39:25.362Z,46.33
2022-11-28T18:41:52.369Z,47.13
2022-11-28T18:44:19.429Z,45.05
2022-11-28T18:46:46.571Z,51.58
2022-11-28T18:49:15.101Z,46.10
2022-11-28T18:51:42.169Z,47.90
2022-11-28T18:54:09.540Z,50.03
2022-11-28T18:56:36.630Z,49.47
2022-11-28T18:59:04.249Z,51.90
2022-11-28T19:01:32.358Z,50.15
2022-11-28T19:04:00.356Z,50.30
2022-11-28T19:06:27.466Z,50.65
2022-11-28T19:08:55.714Z,51.58
2022-11-28T19:11:23.134Z,54.65
2022-11-28T19:13:52.641Z,56.20
2022-11-28T19:16:20.757Z,56.47
2022-11-28T19:18:47.861Z,49.20
2022-11-28T19:21:15.674Z,53.67
2022-11-28T19:23:42.706Z,53.53
2022-11-28T19:26:10.570Z,51.30
2022-11-28T19:28:37.731Z,57.83
2022-11-28T19:31:15.243Z,54.17
2022-11-28T19:33:45.406Z,52.33
2022-11-28T19:36:13.705Z,55.08
2022-11-28T19:38:40.783Z,54.25
2022-11-28T19:41:15.056Z,56.38
2022-11-28T19:43:42.177Z,54.17
2022-11-28T19:46:09.498Z,52.90
2022-11-28T19:48:36.996Z,54.58
2022-11-28T19:51:04.247Z,59.25
2022-11-28T19:53:31.456Z,60.92
2022-11-28T19:56:02.838Z,58.20
2022-11-28T19:58:31.448Z,55.33
2022-11-28T20:01:24.694Z,56.92
2022-11-28T20:03:51.905Z,58.97
2022-11-28T20:06:19.784Z,63.55
2022-11-28T20:08:47.070Z,57.67
2022-11-28T20:11:18.055Z,61.38
2022-11-28T20:13:45.113Z,65.97
2022-11-28T20:16:12.701Z,61.05
2022-11-28T20:18:40.419Z,52.67
2022-11-28T20:21:17.272Z,53.35
2022-11-28T20:23:45.043Z,56.30
2022-11-28T20:26:12.337Z,56.55
2022-11-28T20:28:39.808Z,62.47
2022-11-28T20:31:07.125Z,56.30
2022-11-28T20:33:34.170Z,58.78
2022-11-28T20:36:08.351Z,56.20
2022-11-28T20:38:35.646Z,60.95
2022-11-28T20:41:03.141Z,58.10
2022-11-28T20:43:33.439Z,57.13
2022-11-28T20:46:04.282Z,65.95
2022-11-28T20:48:31.611Z,57.05
2022-11-28T20:50:58.668Z,57.83
2022-11-28T20:53:27.123Z,53.78
2022-11-28T20:56:04.198Z,53.20
2022-11-28T20:58:31.731Z,56.85
2022-11-28T21:00:58.906Z,55.83
2022-11-28T21:03:26.280Z,54.47
2022-11-28T21:05:59.383Z,56.05
2022-11-28T21:08:30.455Z,61.05
2022-11-28T21:10:57.768Z,57.08
2022-11-28T21:13:25.186Z,56.70
2022-11-28T21:15:53.481Z,54.45
2022-11-28T21:18:20.868Z,63.35
2022-11-28T21:20:48.053Z,60.28
2022-11-28T21:23:15.729Z,65.22
2022-11-28T21:25:43.321Z,72.32
2022-11-28T21:28:10.774Z,72.38
2022-11-28T21:30:44.734Z,71.70
2022-11-28T21:33:11.892Z,69.55
2022-11-28T21:35:39.367Z,65.10
2022-11-28T21:38:06.533Z,60.08
2022-11-28T21:40:33.683Z,62.55
2022-11-28T21:43:00.777Z,62.05
2022-11-28T21:45:27.945Z,65.63
2022-11-28T21:47:55.038Z,64.20
2022-11-28T21:50:22.170Z,56.38
2022-11-28T21:52:49.271Z,61.55
2022-11-28T21:55:16.501Z,58.03
2022-11-28T21:57:43.649Z,58.85
2022-11-28T22:00:31.358Z,61.05
2022-11-28T22:03:04.020Z,64.10
2022-11-28T22:05:33.157Z,59.92
2022-11-28T22:08:00.295Z,61.72
2022-11-28T22:10:27.414Z,62.38
2022-11-28T22:12:54.622Z,64.03
2022-11-28T22:15:22.052Z,64.97
2022-11-28T22:17:49.069Z,68.70
2022-11-28T22:20:16.112Z,64.93
2022-11-28T22:22:43.206Z,64.80
2022-11-28T22:25:10.299Z,59.60
2022-11-28T22:27:38.012Z,63.72
2022-11-28T22:30:05.672Z,56.83
2022-11-28T22:32:32.826Z,62.30
2022-11-28T22:34:59.990Z,64.97
2022-11-28T22:37:27.230Z,63.53
2022-11-28T22:39:54.293Z,64.32
2022-11-28T22:42:21.368Z,68.43
2022-11-28T22:44:48.432Z,66.43
2022-11-28T22:47:15.523Z,64.60
2022-11-28T22:49:42.601Z,61.50
2022-11-28T22:52:09.662Z,64.28
2022-11-28T22:54:36.737Z,61.22
2022-11-28T22:57:03.779Z,66.88
2022-11-28T22:59:33.624Z,62.58
2022-11-28T23:02:00.889Z,59.33
2022-11-28T23:04:28.088Z,63.38
2022-11-28T23:06:55.157Z,65.40
2022-11-28T23:09:22.206Z,68.57
2022-11-28T23:11:49.337Z,63.28
2022-11-28T23:14:16.477Z,60.85
2022-11-28T23:16:43.638Z,65.18
2022-11-28T23:19:11.718Z,62.20
2022-11-28T23:21:39.381Z,63.35
2022-11-28T23:24:07.056Z,62.17
2022-11-28T23:26:34.291Z,66.75
2022-11-28T23:29:01.858Z,64.63
2022-11-28T23:31:29.951Z,63.20
2022-11-28T23:33:57.244Z,60.95
2022-11-28T23:36:40.108Z,63.85
2022-11-28T23:39:19.665Z,65.47
2022-11-28T23:41:46.746Z,64.63
2022-11-28T23:44:14.027Z,66.60
2022-11-28T23:46:41.074Z,63.55
2022-11-28T23:49:08.297Z,63.17
2022-11-28T23:51:35.435Z,64.32
2022-11-28T23:54:02.478Z,64.75
2022-11-28T23:56:30.421Z,62.95
2022-11-28T23:58:57.633Z,66.28
